createdAt,value
2023-01-24T00:01:23.608Z,100795.25
2023-01-24T00:04:09.073Z,100792.06
2023-01-24T00:06:54.422Z,100799.19
2023-01-24T00:09:39.877Z,100800.41
2023-01-24T00:12:25.222Z,100806.31
2023-01-24T00:15:11.273Z,100802.75
2023-01-24T00:17:56.869Z,100805.53
2023-01-24T00:20:42.037Z,100809.47
2023-01-24T00:23:27.309Z,100815.00
2023-01-24T00:26:14.007Z,100809.47
2023-01-24T00:29:01.277Z,100803.53
2023-01-24T00:31:46.702Z,100812.66
2023-01-24T00:34:31.789Z,100810.66
2023-01-24T00:37:18.068Z,100807.09
2023-01-24T00:40:03.607Z,100803.16
2023-01-24T00:42:49.139Z,100808.72
2023-01-24T00:45:39.840Z,100808.72
2023-01-24T00:48:25.820Z,100805.13
2023-01-24T00:51:12.335Z,100808.72
2023-01-24T00:53:57.661Z,100809.88
2023-01-24T00:56:43.085Z,100824.53
2023-01-24T00:59:28.328Z,100818.19
2023-01-24T01:02:13.735Z,100829.31
2023-01-24T01:04:59.016Z,100821.38
2023-01-24T01:07:44.879Z,100823.75
2023-01-24T01:10:30.227Z,100824.94
2023-01-24T01:13:15.563Z,100820.56
2023-01-24T01:16:09.541Z,100821.75
2023-01-24T01:18:56.528Z,100825.31
2023-01-24T01:21:45.356Z,100824.16
2023-01-24T01:24:30.543Z,100818.97
2023-01-24T01:27:16.114Z,100815.00
2023-01-24T01:30:01.369Z,100812.63
2023-01-24T01:32:47.660Z,100818.19
2023-01-24T01:35:33.343Z,100812.63
2023-01-24T01:38:19.489Z,100818.19
2023-01-24T01:41:06.362Z,100815.00
2023-01-24T01:44:10.204Z,100816.19
2023-01-24T01:46:55.653Z,100825.31
2023-01-24T01:49:47.537Z,100831.66
2023-01-24T01:52:37.728Z,100816.63
2023-01-24T01:55:30.149Z,100803.91
2023-01-24T01:58:17.949Z,100805.53
2023-01-24T02:01:04.384Z,100793.63
2023-01-24T02:03:56.459Z,100801.56
2023-01-24T02:06:53.139Z,100792.81
2023-01-24T02:09:42.190Z,100800.34
2023-01-24T02:12:45.175Z,100803.91
2023-01-24T02:15:48.840Z,100803.91
2023-01-24T02:18:40.508Z,100794.00
2023-01-24T02:21:26.170Z,100792.00
2023-01-24T02:24:26.427Z,100779.34
2023-01-24T02:27:11.985Z,100785.69
2023-01-24T02:29:57.984Z,100779.69
2023-01-24T02:32:43.733Z,100788.81
2023-01-24T02:35:33.033Z,100778.91
2023-01-24T02:38:24.680Z,100773.72
2023-01-24T02:41:10.847Z,100776.13
2023-01-24T02:43:59.560Z,100783.66
2023-01-24T02:46:45.925Z,100782.47
2023-01-24T02:49:31.141Z,100780.91
2023-01-24T02:52:35.008Z,100791.59
2023-01-24T02:55:22.186Z,100776.13
2023-01-24T02:58:08.305Z,100790.44
2023-01-24T03:00:56.453Z,100794.00
2023-01-24T03:03:44.232Z,100790.44
2023-01-24T03:06:29.645Z,100791.22
2023-01-24T03:09:34.238Z,100789.59
2023-01-24T03:12:40.273Z,100783.69
2023-01-24T03:15:44.085Z,100795.97
2023-01-24T03:18:48.811Z,100796.78
2023-01-24T03:21:52.871Z,100802.69
2023-01-24T03:24:57.200Z,100806.25
2023-01-24T03:28:00.979Z,100795.56
2023-01-24T03:31:08.926Z,100797.53
2023-01-24T03:34:13.146Z,100802.28
2023-01-24T03:36:59.575Z,100802.28
2023-01-24T03:39:54.763Z,100805.44
2023-01-24T03:42:48.967Z,100811.78
2023-01-24T03:45:38.786Z,100806.22
2023-01-24T03:48:35.544Z,100806.59
2023-01-24T03:51:40.507Z,100808.22
2023-01-24T03:54:26.685Z,100803.81
2023-01-24T03:57:22.470Z,100802.25
2023-01-24T04:00:10.395Z,100801.84
2023-01-24T04:03:02.963Z,100806.22
2023-01-24T04:05:50.558Z,100814.56
2023-01-24T04:08:36.181Z,100809.81
2023-01-24T04:11:21.450Z,100807.81
2023-01-24T04:14:11.877Z,100804.69
2023-01-24T04:17:07.717Z,100796.34
2023-01-24T04:20:03.766Z,100802.25
2023-01-24T04:22:49.211Z,100804.59
2023-01-24T04:25:36.088Z,100800.63
2023-01-24T04:28:24.534Z,100806.97
2023-01-24T04:31:11.059Z,100803.41
2023-01-24T04:34:22.624Z,100797.84
2023-01-24T04:37:07.975Z,100796.69
2023-01-24T04:39:54.383Z,100793.50
2023-01-24T04:42:40.019Z,100797.84
2023-01-24T04:45:26.100Z,100795.06
2023-01-24T04:48:13.638Z,100795.88
2023-01-24T04:51:00.734Z,100798.28
2023-01-24T04:53:47.640Z,100802.66
2023-01-24T04:56:36.512Z,100808.63
2023-01-24T04:59:22.028Z,100813.41
2023-01-24T05:02:09.129Z,100818.63
2023-01-24T05:05:00.332Z,100810.72
2023-01-24T05:07:46.045Z,100813.16
2023-01-24T05:10:35.444Z,100804.09
2023-01-24T05:13:20.786Z,100807.78
2023-01-24T05:16:08.650Z,100812.56
2023-01-24T05:18:56.558Z,100818.56
2023-01-24T05:21:43.615Z,100814.22
2023-01-24T05:24:29.500Z,100809.53
2023-01-24T05:27:15.554Z,100827.84
2023-01-24T05:30:06.780Z,100825.09
2023-01-24T05:32:56.818Z,100817.16
2023-01-24T05:35:44.414Z,100825.94
2023-01-24T05:38:31.330Z,100826.34
2023-01-24T05:41:22.952Z,100829.53
2023-01-24T05:44:11.631Z,100819.63
2023-01-24T05:46:59.628Z,100825.56
2023-01-24T05:49:52.164Z,100827.94
2023-01-24T05:52:37.985Z,100825.16
2023-01-24T05:55:23.808Z,100826.75
2023-01-24T05:58:11.203Z,100833.09
2023-01-24T06:01:07.731Z,100831.47
2023-01-24T06:03:57.861Z,100836.25
2023-01-24T06:06:43.504Z,100841.38
2023-01-24T06:09:29.246Z,100835.41
2023-01-24T06:12:14.400Z,100844.94
2023-01-24T06:15:02.791Z,100847.66
2023-01-24T06:17:48.209Z,100846.84
2023-01-24T06:20:34.487Z,100846.41
2023-01-24T06:23:29.228Z,100859.50
2023-01-24T06:26:18.486Z,100855.91
2023-01-24T06:29:04.365Z,100857.47
2023-01-24T06:32:20.869Z,100857.47
2023-01-24T06:35:29.533Z,100860.22
2023-01-24T06:38:24.386Z,100859.81
2023-01-24T06:41:16.560Z,100868.56
2023-01-24T06:44:02.309Z,100870.50
2023-01-24T06:46:47.924Z,100861.00
2023-01-24T06:49:33.137Z,100867.72
2023-01-24T06:52:18.514Z,100860.59
2023-01-24T06:55:04.120Z,100869.69
2023-01-24T06:57:58.638Z,100863.31
2023-01-24T07:00:43.839Z,100860.13
2023-01-24T07:03:28.990Z,100866.50
2023-01-24T07:06:14.575Z,100860.53
2023-01-24T07:09:00.181Z,100868.06
2023-01-24T07:11:45.636Z,100879.94
2023-01-24T07:14:30.960Z,100874.41
2023-01-24T07:17:16.375Z,100864.47
2023-01-24T07:20:03.544Z,100871.19
2023-01-24T07:22:49.170Z,100872.34
2023-01-24T07:25:38.183Z,100868.78
2023-01-24T07:28:23.813Z,100866.03
2023-01-24T07:31:12.780Z,100878.72
2023-01-24T07:33:57.902Z,100872.34
2023-01-24T07:36:44.217Z,100873.19
2023-01-24T07:39:31.294Z,100867.63
2023-01-24T07:42:16.914Z,100872.34
2023-01-24T07:45:02.223Z,100873.19
2023-01-24T07:47:47.564Z,100878.34
2023-01-24T07:50:32.982Z,100872.78
2023-01-24T07:53:18.301Z,100874.75
2023-01-24T07:56:05.080Z,100873.97
2023-01-24T07:58:51.371Z,100872.34
2023-01-24T08:01:36.684Z,100889.03
2023-01-24T08:04:22.055Z,100896.13
2023-01-24T08:07:19.377Z,100883.81
2023-01-24T08:10:05.820Z,100895.69
2023-01-24T08:12:54.706Z,100898.47
2023-01-24T08:15:40.163Z,100903.59
2023-01-24T08:18:25.536Z,100904.44
2023-01-24T08:21:12.853Z,100905.59
2023-01-24T08:23:59.519Z,100913.50
2023-01-24T08:26:47.319Z,100906.34
2023-01-24T08:29:33.163Z,100914.25
2023-01-24T08:32:18.564Z,100915.06
2023-01-24T08:35:04.441Z,100919.44
2023-01-24T08:37:49.716Z,100924.59
2023-01-24T08:40:44.395Z,100921.81
2023-01-24T08:43:34.492Z,100929.78
2023-01-24T08:46:19.733Z,100925.41
2023-01-24T08:49:05.065Z,100931.75
2023-01-24T08:51:51.496Z,100929.41
2023-01-24T08:54:37.416Z,100926.63
2023-01-24T08:57:22.643Z,100940.94
2023-01-24T09:00:09.299Z,100934.19
2023-01-24T09:02:54.979Z,100942.16
2023-01-24T09:05:40.401Z,100933.00
2023-01-24T09:08:25.895Z,100933.78
2023-01-24T09:11:11.462Z,100933.41
2023-01-24T09:13:57.250Z,100927.06
2023-01-24T09:16:42.584Z,100929.41
2023-01-24T09:19:27.953Z,100924.22
2023-01-24T09:22:13.389Z,100926.22
2023-01-24T09:24:58.635Z,100929.78
2023-01-24T09:27:43.895Z,100940.44
2023-01-24T09:30:29.610Z,100939.66
2023-01-24T09:33:16.258Z,100928.56
2023-01-24T09:36:03.813Z,100927.75
2023-01-24T09:39:04.123Z,100940.03
2023-01-24T09:42:12.503Z,100942.81
2023-01-24T09:45:04.759Z,100935.69
2023-01-24T09:47:58.517Z,100925.41
2023-01-24T09:50:48.802Z,100917.88
2023-01-24T09:53:42.710Z,100925.03
2023-01-24T09:56:34.433Z,100922.25
2023-01-24T09:59:24.440Z,100921.44
2023-01-24T10:02:19.653Z,100925.81
2023-01-24T10:05:05.199Z,100926.25
2023-01-24T10:08:02.794Z,100919.88
2023-01-24T10:11:11.152Z,100926.25
2023-01-24T10:14:14.142Z,100915.97
2023-01-24T10:17:20.807Z,100916.69
2023-01-24T10:20:35.163Z,100909.56
2023-01-24T10:23:42.622Z,100909.56
2023-01-24T10:26:51.640Z,100904.75
2023-01-24T10:29:39.710Z,100916.66
2023-01-24T10:32:33.305Z,100911.91
2023-01-24T10:35:26.715Z,100912.28
2023-01-24T10:38:17.067Z,100910.28
2023-01-24T10:41:24.328Z,100903.16
2023-01-24T10:44:26.747Z,100907.50
2023-01-24T10:47:57.687Z,100901.94
2023-01-24T10:50:44.959Z,100904.31
2023-01-24T10:53:31.484Z,100903.16
2023-01-24T10:56:19.970Z,100906.72
2023-01-24T10:59:13.552Z,100901.59
2023-01-24T11:02:00.898Z,100900.00
2023-01-24T11:04:46.536Z,100896.84
2023-01-24T11:07:41.942Z,100899.63
2023-01-24T11:10:32.917Z,100886.94
2023-01-24T11:13:27.325Z,100889.34
2023-01-24T11:16:18.860Z,100891.72
2023-01-24T11:19:07.144Z,100897.25
2023-01-24T11:21:58.533Z,100896.91
2023-01-24T11:24:45.483Z,100890.56
2023-01-24T11:27:32.260Z,100896.91
2023-01-24T11:30:21.108Z,100889.72
2023-01-24T11:33:18.115Z,100894.50
2023-01-24T11:36:37.141Z,100892.09
2023-01-24T11:39:49.492Z,100894.47
2023-01-24T11:43:05.293Z,100891.28
2023-01-24T11:46:05.790Z,100898.44
2023-01-24T11:49:13.855Z,100886.94
2023-01-24T11:52:35.005Z,100882.53
2023-01-24T11:55:49.935Z,100878.19
2023-01-24T11:59:02.904Z,100879.34
2023-01-24T12:02:39.867Z,100873.78
2023-01-24T12:05:40.665Z,100869.84
2023-01-24T12:08:44.346Z,100873.78
2023-01-24T12:11:42.797Z,100863.50
2023-01-24T12:14:34.170Z,100861.53
2023-01-24T12:17:42.452Z,100863.09
2023-01-24T12:20:52.812Z,100861.16
2023-01-24T12:24:00.066Z,100869.09
2023-01-24T12:26:52.955Z,100871.84
2023-01-24T12:30:13.931Z,100866.72
2023-01-24T12:33:32.513Z,100864.34
2023-01-24T12:36:46.720Z,100869.09
2023-01-24T12:39:44.021Z,100859.97
2023-01-24T12:43:04.748Z,100865.88
2023-01-24T12:46:08.315Z,100868.28
2023-01-24T12:49:14.619Z,100868.28
2023-01-24T12:52:09.082Z,100870.28
2023-01-24T12:55:06.188Z,100869.06
2023-01-24T12:58:01.923Z,100871.00
2023-01-24T13:01:08.628Z,100867.41
2023-01-24T13:04:31.861Z,100865.44
2023-01-24T13:07:40.644Z,100866.59
2023-01-24T13:10:53.627Z,100867.41
2023-01-24T13:13:47.348Z,100861.88
2023-01-24T13:16:56.753Z,100871.34
2023-01-24T13:19:42.097Z,100874.13
2023-01-24T13:22:39.904Z,100867.78
2023-01-24T13:25:34.250Z,100864.22
2023-01-24T13:28:38.197Z,100856.69
2023-01-24T13:31:31.334Z,100869.00
2023-01-24T13:34:19.936Z,100868.22
2023-01-24T13:37:07.723Z,100869.00
2023-01-24T13:40:07.452Z,100870.19
2023-01-24T13:42:53.811Z,100866.59
2023-01-24T13:45:42.218Z,100869.38
2023-01-24T13:48:44.978Z,100875.75
2023-01-24T13:51:34.784Z,100873.38
2023-01-24T13:54:37.435Z,100876.53
2023-01-24T13:57:30.712Z,100875.34
2023-01-24T14:00:16.365Z,100874.56
2023-01-24T14:03:24.994Z,100864.66
2023-01-24T14:06:13.482Z,100860.69
2023-01-24T14:09:14.552Z,100860.25
2023-01-24T14:12:05.625Z,100860.25
2023-01-24T14:15:01.635Z,100852.28
2023-01-24T14:17:49.659Z,100851.13
2023-01-24T14:20:37.842Z,100855.50
2023-01-24T14:23:27.589Z,100860.69
2023-01-24T14:26:21.529Z,100872.56
2023-01-24T14:29:17.276Z,100867.84
2023-01-24T14:32:07.317Z,100870.97
2023-01-24T14:35:04.054Z,100878.13
2023-01-24T14:37:51.619Z,100881.72
2023-01-24T14:40:40.857Z,100887.66
2023-01-24T14:43:37.052Z,100891.69
2023-01-24T14:46:25.364Z,100884.94
2023-01-24T14:49:14.999Z,100888.50
2023-01-24T14:52:16.117Z,100891.28
2023-01-24T14:55:27.199Z,100884.19
2023-01-24T14:58:20.530Z,100883.03
2023-01-24T15:01:24.389Z,100881.13
2023-01-24T15:04:30.857Z,100880.69
2023-01-24T15:07:17.966Z,100880.31
2023-01-24T15:10:13.747Z,100881.13
2023-01-24T15:13:03.824Z,100884.31
2023-01-24T15:15:50.227Z,100881.97
2023-01-24T15:18:42.223Z,100881.59
2023-01-24T15:21:32.044Z,100878.44
2023-01-24T15:24:30.286Z,100874.47
2023-01-24T15:27:43.003Z,100883.59
2023-01-24T15:30:28.866Z,100886.84
2023-01-24T15:33:14.728Z,100888.44
2023-01-24T15:36:00.469Z,100890.09
2023-01-24T15:38:54.899Z,100883.81
2023-01-24T15:41:58.893Z,100887.41
2023-01-24T15:44:46.353Z,100889.81
2023-01-24T15:47:48.679Z,100895.78
2023-01-24T15:58:52.276Z,100877.66
2023-01-24T16:01:36.781Z,100873.69
2023-01-24T16:04:23.002Z,100874.53
2023-01-24T16:07:07.792Z,100876.56
2023-01-24T16:09:55.778Z,100870.19
2023-01-24T16:12:41.273Z,100877.34
2023-01-24T16:15:26.011Z,100871.78
2023-01-24T16:18:12.179Z,100878.16
2023-01-24T16:20:57.940Z,100873.38
2023-01-24T16:23:43.727Z,100880.16
2023-01-24T16:26:29.476Z,100875.38
2023-01-24T16:29:21.370Z,100876.16
2023-01-24T16:32:29.566Z,100872.59
2023-01-24T16:35:15.363Z,100873.00
2023-01-24T16:38:01.255Z,100872.63
2023-01-24T16:40:46.724Z,100869.03
2023-01-24T16:43:32.114Z,100869.03
2023-01-24T16:46:20.007Z,100865.09
2023-01-24T16:49:05.558Z,100866.66
2023-01-24T16:51:51.692Z,100869.03
2023-01-24T16:54:37.211Z,100876.56
2023-01-24T16:57:22.863Z,100867.88
2023-01-24T17:00:13.621Z,100868.22
2023-01-24T17:03:00.155Z,100869.03
2023-01-24T17:05:45.802Z,100868.25
2023-01-24T17:08:31.138Z,100869.03
2023-01-24T17:11:17.686Z,100859.53
2023-01-24T17:14:03.125Z,100858.75
2023-01-24T17:16:49.809Z,100868.66
2023-01-24T17:19:37.900Z,100861.09
2023-01-24T17:27:48.604Z,100868.28
2023-01-24T17:30:34.651Z,100873.84
2023-01-24T17:33:20.458Z,100877.03
2023-01-24T17:36:08.074Z,100875.84
2023-01-24T17:38:54.828Z,100884.19
2023-01-24T17:41:41.255Z,100880.97
2023-01-24T17:44:29.541Z,100882.53
2023-01-24T17:47:16.399Z,100886.06
2023-01-24T17:50:02.512Z,100890.81
2023-01-24T17:52:49.018Z,100890.44
2023-01-24T17:55:34.666Z,100887.25
2023-01-24T17:58:19.905Z,100885.69
2023-01-24T18:01:06.447Z,100896.03
2023-01-24T18:04:00.767Z,100884.13
2023-01-24T18:06:48.829Z,100883.31
2023-01-24T18:09:34.060Z,100890.47
2023-01-24T18:12:19.288Z,100888.09
2023-01-24T18:15:05.625Z,100877.78
2023-01-24T18:17:51.561Z,100881.72
2023-01-24T18:20:43.604Z,100888.47
2023-01-24T18:23:29.946Z,100891.25
2023-01-24T18:26:15.838Z,100886.53
2023-01-24T18:29:01.105Z,100882.56
2023-01-24T18:31:48.806Z,100884.97
2023-01-24T18:34:34.580Z,100875.47
2023-01-24T18:37:19.864Z,100869.13
2023-01-24T18:40:06.643Z,100869.13
2023-01-24T18:42:52.416Z,100869.88
2023-01-24T18:45:37.618Z,100873.47
2023-01-24T18:48:23.031Z,100865.50
2023-01-24T18:51:11.085Z,100867.03
2023-01-24T18:53:56.689Z,100871.75
2023-01-24T18:56:41.946Z,100872.47
2023-01-24T18:59:27.915Z,100873.63
2023-01-24T19:02:13.664Z,100873.19
2023-01-24T19:05:00.905Z,100878.75
2023-01-24T19:07:47.400Z,100879.13
2023-01-24T19:10:33.949Z,100875.91
2023-01-24T19:13:19.494Z,100869.09
2023-01-24T19:16:04.931Z,100870.66
2023-01-24T19:18:53.554Z,100868.25
2023-01-24T19:21:39.571Z,100867.84
2023-01-24T19:24:26.500Z,100869.00
2023-01-24T19:27:12.123Z,100867.00
2023-01-24T19:29:57.847Z,100863.88
2023-01-24T19:32:46.131Z,100861.53
2023-01-24T19:35:31.552Z,100867.50
2023-01-24T19:38:16.959Z,100861.97
2023-01-24T19:41:07.469Z,100866.31
2023-01-24T19:44:18.719Z,100859.56
2023-01-24T19:46:59.266Z,100863.88
2023-01-24T19:54:15.252Z,100873.75
2023-01-24T19:57:01.195Z,100872.53
2023-01-24T19:59:49.708Z,100872.50
2023-01-24T20:02:36.135Z,100878.81
2023-01-24T20:05:21.707Z,100875.97
2023-01-24T20:08:07.385Z,100881.88
2023-01-24T20:10:53.348Z,100878.69
2023-01-24T20:13:41.344Z,100879.44
2023-01-24T20:16:29.293Z,100892.13
2023-01-24T20:19:27.620Z,100892.50
2023-01-24T20:22:14.563Z,100899.25
2023-01-24T20:25:02.506Z,100890.56
2023-01-24T20:27:53.321Z,100890.13
2023-01-24T20:30:41.969Z,100884.56
2023-01-24T20:33:27.232Z,100885.00
2023-01-24T20:36:14.194Z,100883.38
2023-01-24T20:38:59.644Z,100883.81
2023-01-24T20:41:46.559Z,100881.88
2023-01-24T20:44:32.458Z,100885.06
2023-01-24T20:47:17.708Z,100879.53
2023-01-24T20:50:03.635Z,100885.06
2023-01-24T20:52:49.351Z,100885.06
2023-01-24T20:55:34.540Z,100882.66
2023-01-24T20:58:19.865Z,100882.66
2023-01-24T21:01:17.830Z,100885.81
2023-01-24T21:04:06.931Z,100876.69
2023-01-24T21:06:52.429Z,100871.16
2023-01-24T21:09:37.812Z,100878.69
2023-01-24T21:12:23.153Z,100875.47
2023-01-24T21:15:08.907Z,100879.44
2023-01-24T21:17:54.448Z,100877.84
2023-01-24T21:20:39.741Z,100873.06
2023-01-24T21:23:26.988Z,100873.41
2023-01-24T21:26:16.520Z,100879.34
2023-01-24T21:29:01.896Z,100865.06
2023-01-24T21:31:47.379Z,100874.56
2023-01-24T21:34:32.689Z,100872.91
2023-01-24T21:37:28.141Z,100876.06
2023-01-24T21:40:14.141Z,100875.25
2023-01-24T21:42:59.386Z,100869.34
2023-01-24T21:45:52.283Z,100870.94
2023-01-24T21:48:56.109Z,100868.16
2023-01-24T21:51:42.715Z,100866.56
2023-01-24T21:54:36.730Z,100860.22
2023-01-24T21:57:40.869Z,100862.59
2023-01-24T22:00:25.931Z,100858.25
2023-01-24T22:03:26.541Z,100856.25
2023-01-24T22:06:12.089Z,100859.03
2023-01-24T22:08:57.259Z,100861.81
2023-01-24T22:11:43.119Z,100859.47
2023-01-24T22:14:30.673Z,100865.81
2023-01-24T22:17:24.218Z,100864.25
2023-01-24T22:20:17.198Z,100861.09
2023-01-24T22:23:29.300Z,100848.41
2023-01-24T22:26:16.810Z,100855.53
2023-01-24T22:29:02.598Z,100842.88
2023-01-24T22:31:48.580Z,100849.22
2023-01-24T22:34:34.655Z,100842.88
2023-01-24T22:37:38.942Z,100840.09
2023-01-24T22:40:25.565Z,100834.91
2023-01-24T22:43:12.630Z,100836.88
2023-01-24T22:45:58.088Z,100832.50
2023-01-24T22:48:43.390Z,100830.50
2023-01-24T22:51:28.500Z,100819.81
2023-01-24T22:54:14.000Z,100823.75
2023-01-24T22:57:00.154Z,100816.63
2023-01-24T22:59:45.528Z,100818.59
2023-01-24T23:02:30.711Z,100809.09
2023-01-24T23:05:16.003Z,100813.84
2023-01-24T23:08:01.164Z,100807.91
2023-01-24T23:10:46.285Z,100790.44
2023-01-24T23:14:03.498Z,100800.41
2023-01-24T23:16:55.560Z,100803.16
2023-01-24T23:20:01.585Z,100802.34
2023-01-24T23:22:46.764Z,100801.19
2023-01-24T23:25:31.875Z,100798.41
2023-01-24T23:28:17.051Z,100796.44
2023-01-24T23:31:10.403Z,100804.00
2023-01-24T23:33:56.353Z,100798.47
2023-01-24T23:36:41.960Z,100796.47
2023-01-24T23:39:27.114Z,100784.59
2023-01-24T23:42:12.342Z,100792.09
2023-01-24T23:44:57.575Z,100791.28
2023-01-24T23:47:43.233Z,100788.88
2023-01-24T23:50:28.846Z,100786.94
2023-01-24T23:53:14.151Z,100775.41
2023-01-24T23:55:59.590Z,100775.78
2023-01-24T23:58:44.863Z,100776.16
